Florencia — IBPD — position and weather

sailwx.info

Track history (hours):
 
Tides and Currents Weather Stations Pressure Air Temp Water Temp Dewpoint Dewpoint Depression Visibility Wind Speed Wind Dir Waves Ship Positions

Florencia

Last reported at 2015-Feb-28 16:34 UTC. Time now 2015-Feb-28 17:26 UTC.
Position N 41°27' E 002°35'.

Length 186 m; draft 6.7 m.

Type: Passenger vessel. MMSI: 247105900.

Date/timePositionNaut miles runAvg speedWind from/ knotsBaromVisibWave heightAir tempDewpointWater temp
2015-Feb-28 16:34N 41°27' E 002°35'2220.7
2015-Feb-28 15:29N 41°39' E 003°00'1718.6
2015-Feb-28 14:33N 41°49' E 003°19'2220.4
2015-Feb-28 13:29N 42°09' E 003°32'2020.0
2015-Feb-28 12:28N 42°26' E 003°46'2123.2
2015-Feb-28 11:33N 42°32' E 004°14'1717.2
2015-Feb-28 10:33N 42°37' E 004°36'2719.9
2015-Feb-28 09:12N 42°44' E 005°11'5820.1
2015-Feb-28 06:20N 42°58' E 006°28'1621.0
2015-Feb-28 05:33N 43°06' E 006°47'2121.2
2015-Feb-28 04:33N 43°18' E 007°11'2120.9
2015-Feb-28 03:33N 43°31' E 007°34'4220.5
2015-Feb-28 01:30N 43°58' E 008°18'2020.8
2015-Feb-28 00:33N 44°15' E 008°31'4 3.7
2015-Feb-27 23:33N 44°19' E 008°30'0 0.0
2015-Feb-27 22:33N 44°19' E 008°30'0 0.0
2015-Feb-27 21:33N 44°19' E 008°30'0 0.0
2015-Feb-27 20:33N 44°19' E 008°30'0 0.0
2015-Feb-27 19:33N 44°19' E 008°30'5 4.8
2015-Feb-27 18:33N 44°14' E 008°31'4719.9
2015-Feb-27 16:11N 43°39' E 007°46'1219.6
2015-Feb-27 15:33N 43°32' E 007°33'2019.7
2015-Feb-27 14:33N 43°20' E 007°11'1919.3
2015-Feb-27 13:33N 43°09' E 006°50'1919.3
2015-Feb-27 12:33N 42°58' E 006°28'6219.9
2015-Feb-27 09:27N 42°44' E 005°06'2020.0
2015-Feb-27 08:26N 42°42' E 004°38'1719.7
2015-Feb-27 07:33N 42°40' E 004°15'2620.1
2015-Feb-27 06:15N 42°33' E 003°41'9218.8
2015-Feb-27 01:22N 41°22' E 002°22'910.8
2015-Feb-27 00:33N 41°21' E 002°10'1 1.0
2015-Feb-26 23:16N 41°22' E 002°11'0 0.0
2015-Feb-26 22:24N 41°22' E 002°11'0 0.0
2015-Feb-26 21:33N 41°22' E 002°11'0 0.0
2015-Feb-26 20:33N 41°22' E 002°11'0 0.0
2015-Feb-26 19:33N 41°22' E 002°11'0 0.0
2015-Feb-26 18:33N 41°22' E 002°11'0 0.0
2015-Feb-26 17:33N 41°22' E 002°11'5 5.4
2015-Feb-26 16:33N 41°17' E 002°15'2320.1
2015-Feb-26 15:24N 41°29' E 002°41'2018.8
2015-Feb-26 14:21N 41°40' E 003°03'1919.3
2015-Feb-26 13:22N 41°52' E 003°23'1820.1
2015-Feb-26 12:29N 42°08' E 003°32'1920.8
2015-Feb-26 11:33N 42°26' E 003°41'4020.0
2015-Feb-26 09:34N 42°38' E 004°33'2421.6
2015-Feb-26 08:28N 42°43' E 005°05'6020.1
2015-Feb-26 05:29N 42°57' E 006°24'1920.3
2015-Feb-26 04:33N 43°05' E 006°47'2120.6
2015-Feb-26 03:33N 43°18' E 007°09'2121.2
2015-Feb-26 02:33N 43°31' E 007°33'4520.8
2015-Feb-26 00:23N 44°00' E 008°20'1720.5
2015-Feb-25 23:34N 44°15' E 008°31'4 3.9
2015-Feb-25 22:33N 44°19' E 008°30'0 0.0
2015-Feb-25 21:33N 44°19' E 008°30'0 0.0
2015-Feb-25 20:33N 44°19' E 008°30'0 0.0
2015-Feb-25 19:33N 44°19' E 008°30'7 7.0
2015-Feb-25 18:34N 44°12' E 008°29'5819.2
2015-Feb-25 15:33N 43°30' E 007°34'1919.0
2015-Feb-25 14:33N 43°17' E 007°14'1919.6
2015-Feb-25 13:33N 43°05' E 006°54'1817.7
2015-Feb-25 12:33N 42°58' E 006°32'6419.3
2015-Feb-25 09:13N 42°44' E 005°06'1516.9
2015-Feb-25 08:21N 42°43' E 004°46'14110.0
2015-Feb-24 18:09N 41°22' E 002°11'5 5.7
2015-Feb-24 17:12N 41°20' E 002°17'1520.0
2015-Feb-24 16:28N 41°27' E 002°34'2020.6
2015-Feb-24 15:28N 41°38' E 002°57'2119.9
2015-Feb-24 14:25N 41°52' E 003°18'2221.0
2015-Feb-24 13:24N 42°13' E 003°24'1719.8
2015-Feb-24 12:33N 42°30' E 003°27'1615.8
2015-Feb-24 11:33N 42°42' E 003°41'1918.8
2015-Feb-24 10:33N 42°47' E 004°05'1918.7
2015-Feb-24 09:33N 42°50' E 004°31'2119.3
2015-Feb-24 08:29N 42°53' E 004°59'5819.1
2015-Feb-24 05:26N 42°55' E 006°18'1719.7
2015-Feb-24 04:33N 43°03' E 006°39'2120.7
2015-Feb-24 03:33N 43°16' E 007°02'2120.9
2015-Feb-24 02:33N 43°29' E 007°24'5221.1
2015-Feb-24 00:07N 44°00' E 008°21'1221.2
2015-Feb-23 23:33N 44°11' E 008°29'8 7.8
2015-Feb-23 22:31N 44°19' E 008°30'0 0.0
2015-Feb-23 21:31N 44°19' E 008°30'0 0.0
2015-Feb-23 20:31N 44°19' E 008°30'0 0.0
2015-Feb-23 19:31N 44°19' E 008°30'0 0.0
2015-Feb-23 18:31N 44°19' E 008°30'0 0.0
2015-Feb-23 17:31N 44°19' E 008°30'0 0.0
2015-Feb-23 16:29N 44°19' E 008°30'0 0.0
2015-Feb-23 15:19N 44°19' E 008°30'0 0.0
2015-Feb-23 14:31N 44°19' E 008°30'0 0.0
2015-Feb-23 13:31N 44°19' E 008°30'0 0.0
2015-Feb-23 12:31N 44°19' E 008°30'0 0.0
2015-Feb-23 11:31N 44°19' E 008°30'0 0.0
2015-Feb-23 10:31N 44°19' E 008°30'0 0.0
2015-Feb-23 09:30N 44°19' E 008°30'0 0.0
2015-Feb-23 08:33N 44°19' E 008°30'0 0.0
2015-Feb-23 07:33N 44°19' E 008°30'0 0.0
2015-Feb-23 06:33N 44°19' E 008°30'0 0.0
2015-Feb-23 05:33N 44°19' E 008°30'0 0.0
2015-Feb-23 04:33N 44°19' E 008°30'0 0.0
2015-Feb-23 03:33N 44°19' E 008°30'0 0.0
2015-Feb-23 02:33N 44°19' E 008°30'0 0.0
2015-Feb-23 01:33N 44°19' E 008°30'0 0.0
2015-Feb-23 00:33N 44°19' E 008°30'0 0.0
2015-Feb-22 23:33N 44°19' E 008°30'0 0.0
2015-Feb-22 22:33N 44°19' E 008°30'0 0.0
2015-Feb-22 21:33N 44°19' E 008°30'0 0.0
2015-Feb-22 20:33N 44°19' E 008°30'5 5.2
2015-Feb-22 19:33N 44°14' E 008°31'2119.2
2015-Feb-22 18:28N 43°56' E 008°15'4519.4
2015-Feb-22 16:09N 43°28' E 007°26'1219.8
2015-Feb-22 15:33N 43°21' E 007°14'1919.4
2015-Feb-22 14:33N 43°10' E 006°52'2019.9
2015-Feb-22 13:34N 42°58' E 006°30'6419.2
2015-Feb-22 10:14N 42°60' E 005°02'1318.8
2015-Feb-22 09:33N 42°60' E 004°45'8516.0
2015-Feb-22 04:13N 42°02' E 003°20'61 5.1
2015-Feb-21 16:13N 41°20' E 002°19'1519.4
2015-Feb-21 15:28N 41°27' E 002°36'2419.2
2015-Feb-21 14:14N 41°39' E 003°03'1318.8
2015-Feb-21 13:33N 41°47' E 003°17'2119.9
2015-Feb-21 12:29N 42°05' E 003°31'2419.2
2015-Feb-21 11:15N 42°22' E 003°54'1520.6
2015-Feb-21 10:31N 42°28' E 004°13'4019.7
2015-Feb-21 08:30N 42°41' E 005°04'5819.5
2015-Feb-21 05:30N 42°56' E 006°21'1920.5
2015-Feb-21 04:33N 43°04' E 006°45'2121.0
2015-Feb-21 03:34N 43°17' E 007°07'2120.9
2015-Feb-21 02:34N 43°30' E 007°30'4820.3
2015-Feb-21 00:13N 44°01' E 008°20'1421.2
2015-Feb-20 23:33N 44°13' E 008°30'6 5.9
2015-Feb-20 22:33N 44°19' E 008°30'0 0.0
2015-Feb-20 21:33N 44°19' E 008°30'0 0.0
2015-Feb-20 20:33N 44°19' E 008°30'1 0.7
2015-Feb-20 19:34N 44°19' E 008°31'1918.6
2015-Feb-20 18:32N 44°01' E 008°20'4120.6
2015-Feb-20 16:33N 43°33' E 007°39'2121.1
2015-Feb-20 15:33N 43°20' E 007°17'2020.3
2015-Feb-20 14:33N 43°07' E 006°55'2020.2
2015-Feb-20 13:33N 42°56' E 006°32'6720.6
2015-Feb-20 10:19N 42°24' E 005°12'1620.6
2015-Feb-20 09:32N 42°17' E 004°53'2321.9
2015-Feb-20 08:29N 42°07' E 004°25'4620.4
2015-Feb-20 06:14N 41°45' E 003°31'64 7.2
2015-Feb-19 21:16N 41°22' E 002°11'0 0.0
2015-Feb-19 17:23N 41°22' E 002°11'6 6.1
2015-Feb-19 16:25N 41°18' E 002°16'1916.9
2015-Feb-19 15:19N 41°28' E 002°37'1717.9
2015-Feb-19 14:22N 41°37' E 002°56'1517.9
2015-Feb-19 13:32N 41°45' E 003°13'2218.4
2015-Feb-19 12:20N 42°00' E 003°34'1619.8
2015-Feb-19 11:31N 42°12' E 003°49'2219.4
2015-Feb-19 10:23N 42°22' E 004°16'1720.2
2015-Feb-19 09:33N 42°28' E 004°37'4919.9
2015-Feb-19 07:05N 42°48' E 005°38'3720.9
2015-Feb-19 05:20N 42°57' E 006°26'1620.6
2015-Feb-19 04:33N 43°05' E 006°45'2020.2
2015-Feb-19 03:33N 43°17' E 007°08'2120.8
2015-Feb-19 02:33N 43°30' E 007°31'4420.0
2015-Feb-19 00:20N 43°58' E 008°18'1620.3
2015-Feb-18 23:33N 44°11' E 008°29'8 7.0
2015-Feb-18 22:29N 44°19' E 008°30'0 0.0
2015-Feb-18 21:29N 44°19' E 008°30'0 0.0
2015-Feb-18 20:32N 44°19' E 008°30'0 0.0
2015-Feb-18 19:32N 44°19' E 008°30'0 0.2
2015-Feb-18 18:33N 44°19' E 008°30'1212.1
2015-Feb-18 17:33N 44°07' E 008°25'  
Track history (hours):
 
Tides and Currents Weather Stations Pressure Air Temp Water Temp Dewpoint Dewpoint Depression Visibility Wind Speed Wind Dir Waves Ship Positions

Florencia

Last reported at 2015-Feb-28 16:34 UTC. Time now 2015-Feb-28 17:26 UTC.
Position N 41°27' E 002°35'.

Length 186 m; draft 6.7 m.

Type: Passenger vessel. MMSI: 247105900.

Date/timePositionNaut miles runAvg speedWind from/ knotsBaromVisibWave heightAir tempDewpointWater temp
2015-Feb-28 16:34N 41°27' E 002°35'2220.7
2015-Feb-28 15:29N 41°39' E 003°00'1718.6
2015-Feb-28 14:33N 41°49' E 003°19'2220.4
2015-Feb-28 13:29N 42°09' E 003°32'2020.0
2015-Feb-28 12:28N 42°26' E 003°46'2123.2
2015-Feb-28 11:33N 42°32' E 004°14'1717.2
2015-Feb-28 10:33N 42°37' E 004°36'2719.9
2015-Feb-28 09:12N 42°44' E 005°11'5820.1
2015-Feb-28 06:20N 42°58' E 006°28'1621.0
2015-Feb-28 05:33N 43°06' E 006°47'2121.2
2015-Feb-28 04:33N 43°18' E 007°11'2120.9
2015-Feb-28 03:33N 43°31' E 007°34'4220.5
2015-Feb-28 01:30N 43°58' E 008°18'2020.8
2015-Feb-28 00:33N 44°15' E 008°31'4 3.7
2015-Feb-27 23:33N 44°19' E 008°30'0 0.0
2015-Feb-27 22:33N 44°19' E 008°30'0 0.0
2015-Feb-27 21:33N 44°19' E 008°30'0 0.0
2015-Feb-27 20:33N 44°19' E 008°30'0 0.0
2015-Feb-27 19:33N 44°19' E 008°30'5 4.8
2015-Feb-27 18:33N 44°14' E 008°31'4719.9
2015-Feb-27 16:11N 43°39' E 007°46'1219.6
2015-Feb-27 15:33N 43°32' E 007°33'2019.7
2015-Feb-27 14:33N 43°20' E 007°11'1919.3
2015-Feb-27 13:33N 43°09' E 006°50'1919.3
2015-Feb-27 12:33N 42°58' E 006°28'6219.9
2015-Feb-27 09:27N 42°44' E 005°06'2020.0
2015-Feb-27 08:26N 42°42' E 004°38'1719.7
2015-Feb-27 07:33N 42°40' E 004°15'2620.1
2015-Feb-27 06:15N 42°33' E 003°41'9218.8
2015-Feb-27 01:22N 41°22' E 002°22'910.8
2015-Feb-27 00:33N 41°21' E 002°10'1 1.0
2015-Feb-26 23:16N 41°22' E 002°11'0 0.0
2015-Feb-26 22:24N 41°22' E 002°11'0 0.0
2015-Feb-26 21:33N 41°22' E 002°11'0 0.0
2015-Feb-26 20:33N 41°22' E 002°11'0 0.0
2015-Feb-26 19:33N 41°22' E 002°11'0 0.0
2015-Feb-26 18:33N 41°22' E 002°11'0 0.0
2015-Feb-26 17:33N 41°22' E 002°11'5 5.4
2015-Feb-26 16:33N 41°17' E 002°15'2320.1
2015-Feb-26 15:24N 41°29' E 002°41'2018.8
2015-Feb-26 14:21N 41°40' E 003°03'1919.3
2015-Feb-26 13:22N 41°52' E 003°23'1820.1
2015-Feb-26 12:29N 42°08' E 003°32'1920.8
2015-Feb-26 11:33N 42°26' E 003°41'4020.0
2015-Feb-26 09:34N 42°38' E 004°33'2421.6
2015-Feb-26 08:28N 42°43' E 005°05'6020.1
2015-Feb-26 05:29N 42°57' E 006°24'1920.3
2015-Feb-26 04:33N 43°05' E 006°47'2120.6
2015-Feb-26 03:33N 43°18' E 007°09'2121.2
2015-Feb-26 02:33N 43°31' E 007°33'4520.8
2015-Feb-26 00:23N 44°00' E 008°20'1720.5
2015-Feb-25 23:34N 44°15' E 008°31'4 3.9
2015-Feb-25 22:33N 44°19' E 008°30'0 0.0
2015-Feb-25 21:33N 44°19' E 008°30'0 0.0
2015-Feb-25 20:33N 44°19' E 008°30'0 0.0
2015-Feb-25 19:33N 44°19' E 008°30'7 7.0
2015-Feb-25 18:34N 44°12' E 008°29'5819.2
2015-Feb-25 15:33N 43°30' E 007°34'1919.0
2015-Feb-25 14:33N 43°17' E 007°14'1919.6
2015-Feb-25 13:33N 43°05' E 006°54'1817.7
2015-Feb-25 12:33N 42°58' E 006°32'6419.3
2015-Feb-25 09:13N 42°44' E 005°06'1516.9
2015-Feb-25 08:21N 42°43' E 004°46'14110.0
2015-Feb-24 18:09N 41°22' E 002°11'5 5.7
2015-Feb-24 17:12N 41°20' E 002°17'1520.0
2015-Feb-24 16:28N 41°27' E 002°34'2020.6
2015-Feb-24 15:28N 41°38' E 002°57'2119.9
2015-Feb-24 14:25N 41°52' E 003°18'2221.0
2015-Feb-24 13:24N 42°13' E 003°24'1719.8
2015-Feb-24 12:33N 42°30' E 003°27'1615.8
2015-Feb-24 11:33N 42°42' E 003°41'1918.8
2015-Feb-24 10:33N 42°47' E 004°05'1918.7
2015-Feb-24 09:33N 42°50' E 004°31'2119.3
2015-Feb-24 08:29N 42°53' E 004°59'5819.1
2015-Feb-24 05:26N 42°55' E 006°18'1719.7
2015-Feb-24 04:33N 43°03' E 006°39'2120.7
2015-Feb-24 03:33N 43°16' E 007°02'2120.9
2015-Feb-24 02:33N 43°29' E 007°24'5221.1
2015-Feb-24 00:07N 44°00' E 008°21'1221.2
2015-Feb-23 23:33N 44°11' E 008°29'8 7.8
2015-Feb-23 22:31N 44°19' E 008°30'0 0.0
2015-Feb-23 21:31N 44°19' E 008°30'0 0.0
2015-Feb-23 20:31N 44°19' E 008°30'0 0.0
2015-Feb-23 19:31N 44°19' E 008°30'0 0.0
2015-Feb-23 18:31N 44°19' E 008°30'0 0.0
2015-Feb-23 17:31N 44°19' E 008°30'0 0.0
2015-Feb-23 16:29N 44°19' E 008°30'0 0.0
2015-Feb-23 15:19N 44°19' E 008°30'0 0.0
2015-Feb-23 14:31N 44°19' E 008°30'0 0.0
2015-Feb-23 13:31N 44°19' E 008°30'0 0.0
2015-Feb-23 12:31N 44°19' E 008°30'0 0.0
2015-Feb-23 11:31N 44°19' E 008°30'0 0.0
2015-Feb-23 10:31N 44°19' E 008°30'0 0.0
2015-Feb-23 09:30N 44°19' E 008°30'0 0.0
2015-Feb-23 08:33N 44°19' E 008°30'0 0.0
2015-Feb-23 07:33N 44°19' E 008°30'0 0.0
2015-Feb-23 06:33N 44°19' E 008°30'0 0.0
2015-Feb-23 05:33N 44°19' E 008°30'0 0.0
2015-Feb-23 04:33N 44°19' E 008°30'0 0.0
2015-Feb-23 03:33N 44°19' E 008°30'0 0.0
2015-Feb-23 02:33N 44°19' E 008°30'0 0.0
2015-Feb-23 01:33N 44°19' E 008°30'0 0.0
2015-Feb-23 00:33N 44°19' E 008°30'0 0.0
2015-Feb-22 23:33N 44°19' E 008°30'0 0.0
2015-Feb-22 22:33N 44°19' E 008°30'0 0.0
2015-Feb-22 21:33N 44°19' E 008°30'0 0.0
2015-Feb-22 20:33N 44°19' E 008°30'5 5.2
2015-Feb-22 19:33N 44°14' E 008°31'2119.2
2015-Feb-22 18:28N 43°56' E 008°15'4519.4
2015-Feb-22 16:09N 43°28' E 007°26'1219.8
2015-Feb-22 15:33N 43°21' E 007°14'1919.4
2015-Feb-22 14:33N 43°10' E 006°52'2019.9
2015-Feb-22 13:34N 42°58' E 006°30'6419.2
2015-Feb-22 10:14N 42°60' E 005°02'1318.8
2015-Feb-22 09:33N 42°60' E 004°45'8516.0
2015-Feb-22 04:13N 42°02' E 003°20'61 5.1
2015-Feb-21 16:13N 41°20' E 002°19'1519.4
2015-Feb-21 15:28N 41°27' E 002°36'2419.2
2015-Feb-21 14:14N 41°39' E 003°03'1318.8
2015-Feb-21 13:33N 41°47' E 003°17'2119.9
2015-Feb-21 12:29N 42°05' E 003°31'2419.2
2015-Feb-21 11:15N 42°22' E 003°54'1520.6
2015-Feb-21 10:31N 42°28' E 004°13'4019.7
2015-Feb-21 08:30N 42°41' E 005°04'5819.5
2015-Feb-21 05:30N 42°56' E 006°21'1920.5
2015-Feb-21 04:33N 43°04' E 006°45'2121.0
2015-Feb-21 03:34N 43°17' E 007°07'2120.9
2015-Feb-21 02:34N 43°30' E 007°30'4820.3
2015-Feb-21 00:13N 44°01' E 008°20'1421.2
2015-Feb-20 23:33N 44°13' E 008°30'6 5.9
2015-Feb-20 22:33N 44°19' E 008°30'0 0.0
2015-Feb-20 21:33N 44°19' E 008°30'0 0.0
2015-Feb-20 20:33N 44°19' E 008°30'1 0.7
2015-Feb-20 19:34N 44°19' E 008°31'1918.6
2015-Feb-20 18:32N 44°01' E 008°20'4120.6
2015-Feb-20 16:33N 43°33' E 007°39'2121.1
2015-Feb-20 15:33N 43°20' E 007°17'2020.3
2015-Feb-20 14:33N 43°07' E 006°55'2020.2
2015-Feb-20 13:33N 42°56' E 006°32'6720.6
2015-Feb-20 10:19N 42°24' E 005°12'1620.6
2015-Feb-20 09:32N 42°17' E 004°53'2321.9
2015-Feb-20 08:29N 42°07' E 004°25'4620.4
2015-Feb-20 06:14N 41°45' E 003°31'64 7.2
2015-Feb-19 21:16N 41°22' E 002°11'0 0.0
2015-Feb-19 17:23N 41°22' E 002°11'6 6.1
2015-Feb-19 16:25N 41°18' E 002°16'1916.9
2015-Feb-19 15:19N 41°28' E 002°37'1717.9
2015-Feb-19 14:22N 41°37' E 002°56'1517.9
2015-Feb-19 13:32N 41°45' E 003°13'2218.4
2015-Feb-19 12:20N 42°00' E 003°34'1619.8
2015-Feb-19 11:31N 42°12' E 003°49'2219.4
2015-Feb-19 10:23N 42°22' E 004°16'1720.2
2015-Feb-19 09:33N 42°28' E 004°37'4919.9
2015-Feb-19 07:05N 42°48' E 005°38'3720.9
2015-Feb-19 05:20N 42°57' E 006°26'1620.6
2015-Feb-19 04:33N 43°05' E 006°45'2020.2
2015-Feb-19 03:33N 43°17' E 007°08'2120.8
2015-Feb-19 02:33N 43°30' E 007°31'4420.0
2015-Feb-19 00:20N 43°58' E 008°18'1620.3
2015-Feb-18 23:33N 44°11' E 008°29'8 7.0
2015-Feb-18 22:29N 44°19' E 008°30'0 0.0
2015-Feb-18 21:29N 44°19' E 008°30'0 0.0
2015-Feb-18 20:32N 44°19' E 008°30'0 0.0
2015-Feb-18 19:32N 44°19' E 008°30'0 0.2
2015-Feb-18 18:33N 44°19' E 008°30'1212.1
2015-Feb-18 17:33N 44°07' E 008°25'  

Dump ship's entire track history